createdAt,value
2023-12-19T00:09:47.195Z,1019.54
2023-12-19T00:11:08.156Z,1019.56
2023-12-19T00:12:08.194Z,1019.41
2023-12-19T00:13:08.196Z,1019.46
2023-12-19T00:14:08.196Z,1019.37
2023-12-19T00:14:47.172Z,1019.33
2023-12-19T00:15:47.174Z,1019.38
2023-12-19T00:16:47.118Z,1019.39
2023-12-19T00:17:47.453Z,1019.42
2023-12-19T00:18:47.333Z,1019.32
2023-12-19T00:19:47.110Z,1019.32
2023-12-19T00:20:47.076Z,1019.27
2023-12-19T00:21:47.130Z,1019.26
2023-12-19T00:22:47.095Z,1019.25
2023-12-19T00:23:47.127Z,1019.32
2023-12-19T00:24:47.317Z,1019.33
2023-12-19T00:25:47.035Z,1019.35
2023-12-19T00:26:47.028Z,1019.36
2023-12-19T00:27:47.080Z,1019.40
2023-12-19T00:28:47.147Z,1019.44
2023-12-19T00:29:46.992Z,1019.45
2023-12-19T00:30:51.805Z,1019.46
2023-12-19T00:31:47.283Z,1019.49
2023-12-19T00:32:47.419Z,1019.53
2023-12-19T00:33:47.060Z,1019.50
2023-12-19T00:34:47.159Z,1019.52
2023-12-19T00:35:46.897Z,1019.50
2023-12-19T00:36:46.936Z,1019.43
2023-12-19T00:37:55.410Z,1019.45
2023-12-19T00:38:54.387Z,1019.36
2023-12-19T00:39:55.472Z,1019.28
2023-12-19T00:40:55.409Z,1019.35
2023-12-19T00:41:46.839Z,1019.33
2023-12-19T00:42:47.135Z,1019.38
2023-12-19T00:43:46.803Z,1019.41
2023-12-19T00:44:46.827Z,1019.48
2023-12-19T00:45:46.807Z,1019.53
2023-12-19T00:46:46.772Z,1019.49
2023-12-19T00:47:46.821Z,1019.48
2023-12-19T00:48:46.888Z,1019.49
2023-12-19T00:49:47.080Z,1019.48
2023-12-19T00:50:46.735Z,1019.45
2023-12-19T00:51:46.819Z,1019.53
2023-12-19T00:52:46.723Z,1019.51
2023-12-19T00:53:46.706Z,1019.48
2023-12-19T00:54:46.735Z,1019.49
2023-12-19T00:55:46.682Z,1019.46
2023-12-19T00:56:46.727Z,1019.42
2023-12-19T00:57:46.699Z,1019.37
2023-12-19T00:58:46.745Z,1019.44
2023-12-19T00:59:46.637Z,1019.37
2023-12-19T01:00:46.721Z,1019.40
2023-12-19T01:01:46.920Z,1019.33
2023-12-19T01:02:47.540Z,1019.35
2023-12-19T01:03:46.676Z,1019.29
2023-12-19T01:04:46.795Z,1019.27
2023-12-19T01:05:46.600Z,1019.31
2023-12-19T01:06:46.647Z,1019.22
2023-12-19T01:07:46.566Z,1019.23
2023-12-19T01:08:46.702Z,1019.17
2023-12-19T01:09:46.690Z,1019.20
2023-12-19T01:10:46.548Z,1019.13
2023-12-19T01:11:46.511Z,1019.02
2023-12-19T01:12:46.607Z,1019.08
2023-12-19T01:13:46.499Z,1019.09
2023-12-19T01:14:46.568Z,1019.12
2023-12-19T01:15:46.549Z,1019.05
2023-12-19T01:16:46.490Z,1019.06
2023-12-19T01:17:46.484Z,1019.00
2023-12-19T01:18:46.471Z,1019.01
2023-12-19T01:19:46.705Z,1019.07
2023-12-19T01:20:46.457Z,1019.01
2023-12-19T01:21:46.463Z,1018.99
2023-12-19T01:22:46.508Z,1018.91
2023-12-19T01:23:46.490Z,1018.84
2023-12-19T01:24:46.490Z,1018.84
2023-12-19T01:25:46.416Z,1018.83
2023-12-19T01:26:46.360Z,1018.80
2023-12-19T01:27:46.365Z,1018.71
2023-12-19T01:28:46.337Z,1018.77
2023-12-19T01:29:46.312Z,1018.74
2023-12-19T01:30:46.349Z,1018.79
2023-12-19T01:31:46.396Z,1018.74
2023-12-19T01:32:46.553Z,1018.66
2023-12-19T01:33:46.419Z,1018.64
2023-12-19T01:34:46.252Z,1018.61
2023-12-19T01:35:46.274Z,1018.63
2023-12-19T01:36:56.523Z,1018.64
2023-12-19T01:37:47.240Z,1018.62
2023-12-19T01:38:46.242Z,1018.59
2023-12-19T01:39:46.257Z,1018.60
2023-12-19T01:40:46.243Z,1018.58
2023-12-19T01:41:46.196Z,1018.67
2023-12-19T01:42:46.434Z,1018.59
2023-12-19T01:43:46.240Z,1018.57
2023-12-19T01:44:46.190Z,1018.62
2023-12-19T01:45:46.171Z,1018.61
2023-12-19T01:46:46.129Z,1018.66
2023-12-19T01:47:46.154Z,1018.63
2023-12-19T01:48:46.300Z,1018.68
2023-12-19T01:49:46.291Z,1018.62
2023-12-19T01:50:46.201Z,1018.69
2023-12-19T01:51:46.142Z,1018.66
2023-12-19T01:52:46.503Z,1018.70
2023-12-19T01:53:46.065Z,1018.65
2023-12-19T01:54:46.142Z,1018.57
2023-12-19T01:55:46.045Z,1018.49
2023-12-19T01:56:46.025Z,1018.56
2023-12-19T01:57:46.083Z,1018.48
2023-12-19T01:58:46.024Z,1018.52
2023-12-19T01:59:46.009Z,1018.46
2023-12-19T02:00:46.143Z,1018.45
2023-12-19T02:01:46.094Z,1018.42
2023-12-19T02:02:46.224Z,1018.38
2023-12-19T02:03:46.127Z,1018.41
2023-12-19T02:04:46.078Z,1018.46
2023-12-19T02:05:45.980Z,1018.46
2023-12-19T02:06:45.964Z,1018.39
2023-12-19T02:07:45.944Z,1018.37
2023-12-19T02:08:45.933Z,1018.39
2023-12-19T02:09:45.927Z,1018.38
2023-12-19T02:10:45.919Z,1018.37
2023-12-19T02:11:45.915Z,1018.43
2023-12-19T02:12:46.239Z,1018.45
2023-12-19T02:13:45.865Z,1018.46
2023-12-19T02:14:45.886Z,1018.41
2023-12-19T02:15:45.906Z,1018.43
2023-12-19T02:16:45.822Z,1018.37
2023-12-19T02:17:45.978Z,1018.44
2023-12-19T02:18:45.871Z,1018.34
2023-12-19T02:19:45.847Z,1018.35
2023-12-19T02:20:45.789Z,1018.32
2023-12-19T02:21:45.824Z,1018.28
2023-12-19T02:22:46.160Z,1018.27
2023-12-19T02:23:45.877Z,1018.20
2023-12-19T02:24:45.823Z,1018.17
2023-12-19T02:25:45.715Z,1018.11
2023-12-19T02:26:45.778Z,1018.06
2023-12-19T02:27:45.754Z,1018.08
2023-12-19T02:28:45.695Z,1018.01
2023-12-19T02:29:45.703Z,1018.04
2023-12-19T02:30:45.743Z,1018.06
2023-12-19T02:31:45.770Z,1018.04
2023-12-19T02:32:45.885Z,1018.10
2023-12-19T02:33:45.732Z,1018.04
2023-12-19T02:34:45.750Z,1018.00
2023-12-19T02:35:45.618Z,1018.09
2023-12-19T02:36:45.707Z,1018.12
2023-12-19T02:37:45.759Z,1018.10
2023-12-19T02:38:45.690Z,1018.14
2023-12-19T02:39:45.606Z,1018.18
2023-12-19T02:40:45.577Z,1018.10
2023-12-19T02:41:45.565Z,1018.11
2023-12-19T02:42:45.874Z,1018.03
2023-12-19T02:43:53.977Z,1018.07
2023-12-19T02:44:46.603Z,1018.02
2023-12-19T02:45:45.543Z,1017.99
2023-12-19T02:46:45.503Z,1017.95
2023-12-19T02:47:45.666Z,1017.96
2023-12-19T02:48:45.583Z,1017.90
2023-12-19T02:49:45.544Z,1017.90
2023-12-19T02:50:45.588Z,1017.88
2023-12-19T02:51:45.486Z,1017.92
2023-12-19T02:52:45.745Z,1017.91
2023-12-19T02:53:45.453Z,1017.96
2023-12-19T02:54:45.559Z,1017.93
2023-12-19T02:55:45.409Z,1017.85
2023-12-19T02:56:45.414Z,1017.92
2023-12-19T02:57:45.437Z,1017.88
2023-12-19T02:58:45.376Z,1017.91
2023-12-19T02:59:45.389Z,1017.95
2023-12-19T03:00:45.539Z,1017.89
2023-12-19T03:01:45.456Z,1017.88
2023-12-19T03:02:45.562Z,1017.84
2023-12-19T03:03:45.474Z,1017.78
2023-12-19T03:04:45.360Z,1017.81
2023-12-19T03:05:45.404Z,1017.78
2023-12-19T03:06:45.345Z,1017.76
2023-12-19T03:07:45.281Z,1017.65
2023-12-19T03:08:45.297Z,1017.61
2023-12-19T03:09:45.482Z,1017.55
2023-12-19T03:10:45.248Z,1017.54
2023-12-19T03:11:45.244Z,1017.47
2023-12-19T03:12:45.520Z,1017.52
2023-12-19T03:13:45.218Z,1017.52
2023-12-19T03:14:45.206Z,1017.56
2023-12-19T03:15:45.323Z,1017.50
2023-12-19T03:16:45.188Z,1017.55
2023-12-19T03:17:45.225Z,1017.51
2023-12-19T03:18:45.254Z,1017.51
2023-12-19T03:19:45.244Z,1017.49
2023-12-19T03:20:45.255Z,1017.42
2023-12-19T03:21:45.182Z,1017.39
2023-12-19T03:22:45.493Z,1017.34
2023-12-19T03:23:45.124Z,1017.29
2023-12-19T03:24:45.131Z,1017.26
2023-12-19T03:25:45.086Z,1017.23
2023-12-19T03:26:45.119Z,1017.24
2023-12-19T03:27:45.110Z,1017.19
2023-12-19T03:28:45.062Z,1017.20
2023-12-19T03:29:45.056Z,1017.21
2023-12-19T03:30:45.132Z,1017.25
2023-12-19T03:31:45.107Z,1017.24
2023-12-19T03:32:45.376Z,1017.26
2023-12-19T03:33:45.081Z,1017.27
2023-12-19T03:34:45.140Z,1017.30
2023-12-19T03:35:45.022Z,1017.30
2023-12-19T03:36:45.019Z,1017.26
2023-12-19T03:37:44.984Z,1017.30
2023-12-19T03:38:44.960Z,1017.27
2023-12-19T03:39:44.972Z,1017.34
2023-12-19T03:40:44.993Z,1017.35
2023-12-19T03:42:09.873Z,1017.35
2023-12-19T03:42:46.281Z,1017.38
2023-12-19T03:43:44.990Z,1017.35
2023-12-19T03:44:44.897Z,1017.32
2023-12-19T03:45:45.012Z,1017.36
2023-12-19T03:46:44.868Z,1017.30
2023-12-19T03:47:44.877Z,1017.36
2023-12-19T03:48:44.930Z,1017.28
2023-12-19T03:49:44.900Z,1017.27
2023-12-19T03:50:44.893Z,1017.28
2023-12-19T03:51:44.893Z,1017.29
2023-12-19T03:52:45.134Z,1017.24
2023-12-19T03:53:44.824Z,1017.25
2023-12-19T03:54:44.917Z,1017.19
2023-12-19T03:55:44.786Z,1017.16
2023-12-19T03:56:44.796Z,1017.14
2023-12-19T03:57:44.788Z,1017.14
2023-12-19T03:58:44.844Z,1017.05
2023-12-19T03:59:44.729Z,1017.01
2023-12-19T04:00:44.768Z,1017.02
2023-12-19T04:01:44.749Z,1017.01
2023-12-19T04:02:44.974Z,1017.00
2023-12-19T04:03:44.750Z,1016.92
2023-12-19T04:04:44.816Z,1016.90
2023-12-19T04:05:44.747Z,1016.83
2023-12-19T04:06:44.708Z,1016.79
2023-12-19T04:07:44.654Z,1016.89
2023-12-19T04:08:44.625Z,1016.91
2023-12-19T04:09:44.653Z,1016.87
2023-12-19T04:10:44.614Z,1016.85
2023-12-19T04:11:44.624Z,1016.88
2023-12-19T04:12:44.991Z,1016.85
2023-12-19T04:13:44.579Z,1016.87
2023-12-19T04:14:44.641Z,1016.86
2023-12-19T04:15:44.677Z,1016.76
2023-12-19T04:16:44.585Z,1016.76
2023-12-19T04:17:44.587Z,1016.75
2023-12-19T04:18:44.576Z,1016.68
2023-12-19T04:19:44.650Z,1016.71
2023-12-19T04:20:44.526Z,1016.69
2023-12-19T04:21:44.549Z,1016.64
2023-12-19T04:22:44.851Z,1016.55
2023-12-19T04:23:44.480Z,1016.54
2023-12-19T04:24:44.502Z,1016.42
2023-12-19T04:25:44.531Z,1016.39
2023-12-19T04:26:44.518Z,1016.45
2023-12-19T04:27:44.473Z,1016.38
2023-12-19T04:28:44.436Z,1016.37
2023-12-19T04:29:44.420Z,1016.31
2023-12-19T04:30:44.537Z,1016.34
2023-12-19T04:31:44.493Z,1016.30
2023-12-19T04:32:44.901Z,1016.29
2023-12-19T04:33:44.498Z,1016.26
2023-12-19T04:34:44.491Z,1016.25
2023-12-19T04:35:44.348Z,1016.24
2023-12-19T04:36:44.385Z,1016.23
2023-12-19T04:37:44.458Z,1016.16
2023-12-19T04:38:44.309Z,1016.19
2023-12-19T04:39:44.357Z,1016.24
2023-12-19T04:40:44.303Z,1016.22
2023-12-19T04:41:44.287Z,1016.27
2023-12-19T04:42:44.580Z,1016.25
2023-12-19T04:43:44.338Z,1016.26
2023-12-19T04:44:44.309Z,1016.29
2023-12-19T04:45:44.275Z,1016.29
2023-12-19T04:46:44.244Z,1016.25
2023-12-19T04:47:44.396Z,1016.26
2023-12-19T04:48:44.434Z,1016.23
2023-12-19T04:49:44.358Z,1016.25
2023-12-19T04:50:44.192Z,1016.30
2023-12-19T04:51:44.183Z,1016.29
2023-12-19T04:52:44.350Z,1016.31
2023-12-19T04:53:44.230Z,1016.26
2023-12-19T04:54:44.212Z,1016.23
2023-12-19T04:55:44.588Z,1016.27
2023-12-19T04:56:44.132Z,1016.27
2023-12-19T04:57:44.166Z,1016.28
2023-12-19T04:58:44.123Z,1016.28
2023-12-19T04:59:44.178Z,1016.24
2023-12-19T05:00:44.158Z,1016.27
2023-12-19T05:01:44.139Z,1016.26
2023-12-19T05:02:44.450Z,1016.29
2023-12-19T05:03:44.202Z,1016.20
2023-12-19T05:04:44.056Z,1016.18
2023-12-19T05:05:44.060Z,1016.08
2023-12-19T05:06:44.057Z,1016.10
2023-12-19T05:07:44.104Z,1016.07
2023-12-19T05:08:43.994Z,1016.05
2023-12-19T05:09:44.047Z,1015.96
2023-12-19T05:10:44.116Z,1015.95
2023-12-19T05:11:43.967Z,1015.92
2023-12-19T05:12:44.395Z,1015.92
2023-12-19T05:13:43.951Z,1015.90
2023-12-19T05:14:43.935Z,1015.91
2023-12-19T05:15:43.984Z,1015.86
2023-12-19T05:16:43.916Z,1015.87
2023-12-19T05:17:46.879Z,1015.79
2023-12-19T05:18:44.182Z,1015.79
2023-12-19T05:19:50.242Z,1015.78
2023-12-19T05:20:44.880Z,1015.71
2023-12-19T05:21:43.939Z,1015.69
2023-12-19T05:22:44.129Z,1015.63
2023-12-19T05:23:43.927Z,1015.62
2023-12-19T05:24:43.900Z,1015.57
2023-12-19T05:25:43.831Z,1015.55
2023-12-19T05:26:43.809Z,1015.54
2023-12-19T05:27:43.859Z,1015.51
2023-12-19T05:28:43.854Z,1015.50
2023-12-19T05:29:43.789Z,1015.48
2023-12-19T05:30:43.888Z,1015.44
2023-12-19T05:31:43.815Z,1015.42
2023-12-19T05:32:44.040Z,1015.45
2023-12-19T05:33:43.907Z,1015.47
2023-12-19T05:34:43.754Z,1015.39
2023-12-19T05:35:43.729Z,1015.51
2023-12-19T05:36:43.736Z,1015.50
2023-12-19T05:37:43.696Z,1015.53
2023-12-19T05:38:43.793Z,1015.54
2023-12-19T05:39:43.776Z,1015.51
2023-12-19T05:40:43.775Z,1015.55
2023-12-19T05:41:43.661Z,1015.58
2023-12-19T05:42:43.954Z,1015.61
2023-12-19T05:43:43.751Z,1015.58
2023-12-19T05:44:43.626Z,1015.60
2023-12-19T05:45:43.654Z,1015.61
2023-12-19T05:46:43.590Z,1015.63
2023-12-19T05:47:43.663Z,1015.62
2023-12-19T05:48:43.774Z,1015.71
2023-12-19T05:49:43.731Z,1015.64
2023-12-19T05:50:43.607Z,1015.65
2023-12-19T05:51:43.707Z,1015.69
2023-12-19T05:52:43.845Z,1015.64
2023-12-19T05:53:43.528Z,1015.69
2023-12-19T05:54:43.683Z,1015.59
2023-12-19T05:55:43.515Z,1015.64
2023-12-19T05:56:43.488Z,1015.53
2023-12-19T05:57:43.507Z,1015.48
2023-12-19T05:58:43.458Z,1015.48
2023-12-19T05:59:43.615Z,1015.43
2023-12-19T06:00:43.480Z,1015.43
2023-12-19T06:01:43.574Z,1015.41
2023-12-19T06:02:43.701Z,1015.48
2023-12-19T06:03:43.489Z,1015.47
2023-12-19T06:04:43.469Z,1015.47
2023-12-19T06:05:43.512Z,1015.45
2023-12-19T06:06:43.532Z,1015.44
2023-12-19T06:07:43.380Z,1015.43
2023-12-19T06:08:43.371Z,1015.41
2023-12-19T06:09:43.418Z,1015.38
2023-12-19T06:10:43.336Z,1015.37
2023-12-19T06:11:43.446Z,1015.40
2023-12-19T06:12:43.735Z,1015.47
2023-12-19T06:13:43.318Z,1015.40
2023-12-19T06:14:43.306Z,1015.39
2023-12-19T06:15:43.350Z,1015.42
2023-12-19T06:16:43.347Z,1015.35
2023-12-19T06:17:43.294Z,1015.29
2023-12-19T06:18:43.355Z,1015.34
2023-12-19T06:19:43.387Z,1015.23
2023-12-19T06:20:43.242Z,1015.33
2023-12-19T06:21:43.321Z,1015.29
2023-12-19T06:22:43.476Z,1015.38
2023-12-19T06:23:43.223Z,1015.33
2023-12-19T06:24:43.264Z,1015.28
2023-12-19T06:25:43.192Z,1015.24
2023-12-19T06:26:43.241Z,1015.28
2023-12-19T06:27:43.192Z,1015.24
2023-12-19T06:28:43.227Z,1015.28
2023-12-19T06:29:43.145Z,1015.21
2023-12-19T06:30:43.257Z,1015.22
2023-12-19T06:31:43.242Z,1015.24
2023-12-19T06:32:43.277Z,1015.26
2023-12-19T06:33:43.338Z,1015.26
2023-12-19T06:34:43.174Z,1015.28
2023-12-19T06:35:43.078Z,1015.24
2023-12-19T06:36:43.091Z,1015.29
2023-12-19T06:37:43.145Z,1015.26
2023-12-19T06:38:43.170Z,1015.27
2023-12-19T06:39:43.053Z,1015.34
2023-12-19T06:40:43.032Z,1015.26
2023-12-19T06:41:43.019Z,1015.23
2023-12-19T06:42:43.315Z,1015.16
2023-12-19T06:43:43.207Z,1015.32
2023-12-19T06:44:42.992Z,1015.32
2023-12-19T06:45:43.028Z,1015.34
2023-12-19T06:46:42.975Z,1015.33
2023-12-19T06:47:42.964Z,1015.36
2023-12-19T06:48:43.255Z,1015.33
2023-12-19T06:49:43.065Z,1015.21
2023-12-19T06:50:42.981Z,1015.26
2023-12-19T06:51:43.002Z,1015.19
2023-12-19T06:52:43.225Z,1015.21
2023-12-19T06:53:42.979Z,1015.19
2023-12-19T06:54:42.998Z,1015.11
2023-12-19T06:55:42.903Z,1015.12
2023-12-19T06:56:42.973Z,1015.09
2023-12-19T06:57:42.953Z,1015.11
2023-12-19T06:58:42.853Z,1015.12
2023-12-19T06:59:42.832Z,1015.13
2023-12-19T07:00:43.014Z,1014.96
2023-12-19T07:01:42.938Z,1015.07
2023-12-19T07:02:43.083Z,1014.94
2023-12-19T07:03:42.856Z,1014.96
2023-12-19T07:04:42.786Z,1015.02
2023-12-19T07:05:42.784Z,1015.02
2023-12-19T07:06:42.869Z,1015.04
2023-12-19T07:07:42.837Z,1014.95
2023-12-19T07:08:46.734Z,1014.96
2023-12-19T07:09:43.745Z,1014.93
2023-12-19T07:10:42.786Z,1014.88
2023-12-19T07:11:42.722Z,1014.82
2023-12-19T07:12:43.161Z,1014.80
2023-12-19T07:13:42.677Z,1014.77
2023-12-19T07:14:42.684Z,1014.70
2023-12-19T07:15:42.690Z,1014.73
2023-12-19T07:16:42.750Z,1014.74
2023-12-19T07:17:42.668Z,1014.78
2023-12-19T07:18:42.817Z,1014.74
2023-12-19T07:19:42.729Z,1014.68
2023-12-19T07:20:42.673Z,1014.62
2023-12-19T07:21:42.694Z,1014.63
2023-12-19T07:22:42.773Z,1014.67
2023-12-19T07:23:42.568Z,1014.69
2023-12-19T07:24:42.585Z,1014.68
2023-12-19T07:25:42.635Z,1014.71
2023-12-19T07:26:42.606Z,1014.78
2023-12-19T07:27:44.397Z,1014.86
2023-12-19T07:28:42.582Z,1014.83
2023-12-19T07:29:42.497Z,1014.84
2023-12-19T07:30:42.715Z,1014.68
2023-12-19T07:31:42.558Z,1014.80
2023-12-19T07:32:42.952Z,1014.78
2023-12-19T07:33:42.570Z,1014.73
2023-12-19T07:34:42.473Z,1014.64
2023-12-19T07:35:42.427Z,1014.53
2023-12-19T07:36:42.635Z,1014.57
2023-12-19T07:37:42.437Z,1014.55
2023-12-19T07:38:42.412Z,1014.45
2023-12-19T07:39:42.409Z,1014.50
2023-12-19T07:40:42.409Z,1014.52
2023-12-19T07:41:42.390Z,1014.53
2023-12-19T07:42:42.917Z,1014.53
2023-12-19T07:43:42.360Z,1014.54
2023-12-19T07:44:42.373Z,1014.56
2023-12-19T07:45:42.391Z,1014.64
2023-12-19T07:46:42.421Z,1014.70
2023-12-19T07:47:42.323Z,1014.69
2023-12-19T07:48:42.421Z,1014.76
2023-12-19T07:49:42.356Z,1014.82
2023-12-19T07:50:42.303Z,1014.88
2023-12-19T07:51:42.378Z,1014.79
2023-12-19T07:52:42.491Z,1014.79
2023-12-19T07:53:42.304Z,1014.84
2023-12-19T07:54:42.406Z,1014.82
2023-12-19T07:55:42.237Z,1014.75
2023-12-19T07:56:42.331Z,1014.78
2023-12-19T07:57:42.414Z,1014.78
2023-12-19T07:58:42.221Z,1014.90
2023-12-19T07:59:42.216Z,1014.70
2023-12-19T08:00:42.331Z,1014.70
2023-12-19T08:01:42.864Z,1014.65
2023-12-19T08:02:42.581Z,1014.69
2023-12-19T08:03:42.218Z,1014.64
2023-12-19T08:04:42.153Z,1014.66
2023-12-19T08:05:42.227Z,1014.67
2023-12-19T08:06:42.183Z,1014.66
2023-12-19T08:07:42.117Z,1014.68
2023-12-19T08:08:42.108Z,1014.71
2023-12-19T08:09:42.206Z,1014.69
2023-12-19T08:10:42.082Z,1014.64
2023-12-19T08:11:42.085Z,1014.70
2023-12-19T08:12:42.329Z,1014.63
2023-12-19T08:13:42.114Z,1014.67
2023-12-19T08:14:42.072Z,1014.69
2023-12-19T08:15:42.083Z,1014.70
2023-12-19T08:16:42.031Z,1014.59
2023-12-19T08:17:42.133Z,1014.66
2023-12-19T08:18:42.189Z,1014.64
2023-12-19T08:19:42.053Z,1014.56
2023-12-19T08:20:42.039Z,1014.63
2023-12-19T08:21:42.032Z,1014.55
2023-12-19T08:22:42.197Z,1014.48
2023-12-19T08:23:42.038Z,1014.55
2023-12-19T08:24:41.963Z,1014.58
2023-12-19T08:25:41.938Z,1014.53
2023-12-19T08:26:41.898Z,1014.63
2023-12-19T08:27:41.955Z,1014.60
2023-12-19T08:28:41.891Z,1014.53
2023-12-19T08:29:41.887Z,1014.54
2023-12-19T08:30:41.976Z,1014.53
2023-12-19T08:31:41.960Z,1014.55
2023-12-19T08:32:42.184Z,1014.56
2023-12-19T08:33:41.862Z,1014.59
2023-12-19T08:34:41.921Z,1014.53
2023-12-19T08:35:41.905Z,1014.51
2023-12-19T08:36:41.808Z,1014.48
2023-12-19T08:37:41.785Z,1014.44
2023-12-19T08:38:41.866Z,1014.42
2023-12-19T08:39:41.875Z,1014.47
2023-12-19T08:40:41.790Z,1014.44
2023-12-19T08:41:41.995Z,1014.48
2023-12-19T08:42:42.073Z,1014.46
2023-12-19T08:43:41.854Z,1014.46
2023-12-19T08:44:42.170Z,1014.45
2023-12-19T08:45:42.016Z,1014.48
2023-12-19T08:46:41.883Z,1014.48
2023-12-19T08:47:41.709Z,1014.41
2023-12-19T08:48:41.750Z,1014.31
2023-12-19T08:49:41.740Z,1014.33
2023-12-19T08:50:41.633Z,1014.35
2023-12-19T08:51:41.795Z,1014.29
2023-12-19T08:52:41.844Z,1014.15
2023-12-19T08:53:41.616Z,1014.17
2023-12-19T08:54:41.648Z,1014.10
2023-12-19T08:55:41.730Z,1014.16
2023-12-19T08:56:41.736Z,1014.11
2023-12-19T08:57:41.605Z,1014.15
2023-12-19T08:58:41.635Z,1014.15
2023-12-19T08:59:41.547Z,1014.15
2023-12-19T09:00:41.707Z,1014.12
2023-12-19T09:01:41.624Z,1014.23
2023-12-19T09:02:41.759Z,1014.23
2023-12-19T09:03:41.677Z,1014.12
2023-12-19T09:04:41.775Z,1014.07
2023-12-19T09:05:41.496Z,1014.13
2023-12-19T09:06:41.544Z,1014.11
2023-12-19T09:07:41.513Z,1014.10
2023-12-19T09:08:41.465Z,1014.06
2023-12-19T09:09:41.449Z,1014.06
2023-12-19T09:10:41.542Z,1014.07
2023-12-19T09:11:41.417Z,1014.01
2023-12-19T09:12:41.725Z,1014.00
2023-12-19T09:13:41.454Z,1014.06
2023-12-19T09:14:41.469Z,1014.05
2023-12-19T09:15:41.402Z,1014.08
2023-12-19T09:16:41.386Z,1014.09
2023-12-19T09:17:41.401Z,1014.13
2023-12-19T09:18:41.499Z,1014.13
2023-12-19T09:19:41.557Z,1014.15
2023-12-19T09:20:41.337Z,1014.14
2023-12-19T09:21:41.341Z,1014.03
2023-12-19T09:22:41.471Z,1013.96
2023-12-19T09:23:42.340Z,1013.89
2023-12-19T09:24:41.360Z,1013.81
2023-12-19T09:25:41.281Z,1013.88
2023-12-19T09:26:41.256Z,1013.82
2023-12-19T09:27:41.263Z,1013.84
2023-12-19T09:28:41.240Z,1013.87
2023-12-19T09:29:41.281Z,1013.75
2023-12-19T09:30:41.331Z,1013.80
2023-12-19T09:31:41.415Z,1013.75
2023-12-19T09:32:41.458Z,1013.78
2023-12-19T09:33:41.379Z,1013.78
2023-12-19T09:34:41.497Z,1013.78
2023-12-19T09:35:41.270Z,1013.76
2023-12-19T09:36:50.560Z,1013.71
2023-12-19T09:37:42.158Z,1013.76
2023-12-19T09:38:41.161Z,1013.71
2023-12-19T09:39:41.351Z,1013.75
2023-12-19T09:40:41.160Z,1013.68
2023-12-19T09:41:41.309Z,1013.69
2023-12-19T09:42:41.423Z,1013.63
2023-12-19T09:43:41.082Z,1013.69
2023-12-19T09:44:41.128Z,1013.63
2023-12-19T09:45:41.244Z,1013.61
2023-12-19T09:46:41.041Z,1013.65
2023-12-19T09:47:41.084Z,1013.59
2023-12-19T09:48:41.205Z,1013.66
2023-12-19T09:49:41.333Z,1013.65
2023-12-19T09:50:41.108Z,1013.64
2023-12-19T09:51:41.033Z,1013.71
2023-12-19T09:52:41.103Z,1013.68
2023-12-19T09:53:41.470Z,1013.61
2023-12-19T09:54:41.059Z,1013.62
2023-12-19T09:55:41.046Z,1013.62
2023-12-19T09:56:41.043Z,1013.64
2023-12-19T09:57:41.109Z,1013.63
2023-12-19T09:58:41.011Z,1013.66
2023-12-19T09:59:45.529Z,1013.69
2023-12-19T10:00:42.055Z,1013.62
2023-12-19T10:01:41.132Z,1013.62
2023-12-19T10:02:41.024Z,1013.56
2023-12-19T10:03:40.993Z,1013.55
2023-12-19T10:04:40.888Z,1013.58
2023-12-19T10:05:40.896Z,1013.53
2023-12-19T10:06:49.386Z,1013.58
2023-12-19T10:07:41.938Z,1013.53
2023-12-19T10:08:40.816Z,1013.55
2023-12-19T10:09:41.227Z,1013.48
2023-12-19T10:10:40.822Z,1013.47
2023-12-19T10:11:40.786Z,1013.42
2023-12-19T10:13:40.787Z,1013.48
2023-12-19T10:14:40.834Z,1013.47
2023-12-19T10:15:40.821Z,1013.44
2023-12-19T10:16:40.773Z,1013.39
2023-12-19T10:17:40.752Z,1013.42
2023-12-19T10:18:45.677Z,1013.42
2023-12-19T10:19:41.937Z,1013.34
2023-12-19T10:20:40.704Z,1013.30
2023-12-19T10:21:40.696Z,1013.29
2023-12-19T10:22:40.825Z,1013.32
2023-12-19T10:23:40.725Z,1013.26
2023-12-19T10:24:40.693Z,1013.28
2023-12-19T10:25:46.002Z,1013.20
2023-12-19T10:26:41.656Z,1013.20
2023-12-19T10:27:40.674Z,1013.15
2023-12-19T10:28:40.616Z,1013.12
2023-12-19T10:29:40.667Z,1013.10
2023-12-19T10:30:40.723Z,1013.07
2023-12-19T10:31:40.725Z,1013.04
2023-12-19T10:32:40.746Z,1012.96
2023-12-19T10:33:40.800Z,1012.94
2023-12-19T10:34:40.653Z,1012.91
2023-12-19T10:35:40.583Z,1012.84
2023-12-19T10:36:40.533Z,1012.86
2023-12-19T10:37:45.133Z,1012.81
2023-12-19T10:38:41.529Z,1012.82
2023-12-19T10:39:40.506Z,1012.88
2023-12-19T10:40:40.495Z,1012.83
2023-12-19T10:41:40.552Z,1012.81
2023-12-19T10:42:40.554Z,1012.82
2023-12-19T10:43:40.439Z,1012.80
2023-12-19T10:44:40.487Z,1012.86
2023-12-19T10:45:40.465Z,1012.78
2023-12-19T10:46:40.517Z,1012.69
2023-12-19T10:47:40.612Z,1012.71
2023-12-19T10:48:40.513Z,1012.67
2023-12-19T10:49:40.691Z,1012.64
2023-12-19T10:50:40.671Z,1012.65
2023-12-19T10:51:40.364Z,1012.63
2023-12-19T10:52:40.331Z,1012.63
2023-12-19T10:53:40.395Z,1012.64
2023-12-19T10:54:40.339Z,1012.60
2023-12-19T10:55:40.405Z,1012.56
2023-12-19T10:56:40.330Z,1012.58
2023-12-19T10:57:40.406Z,1012.55
2023-12-19T10:58:40.708Z,1012.57
2023-12-19T10:59:40.251Z,1012.54
2023-12-19T11:00:40.372Z,1012.49
2023-12-19T11:01:40.453Z,1012.58
2023-12-19T11:02:40.247Z,1012.60
2023-12-19T11:03:40.344Z,1012.56
2023-12-19T11:04:40.422Z,1012.49
2023-12-19T11:05:40.269Z,1012.51
2023-12-19T11:06:40.244Z,1012.50
2023-12-19T11:07:40.199Z,1012.41
2023-12-19T11:08:40.211Z,1012.42
2023-12-19T11:09:40.186Z,1012.43
2023-12-19T11:10:40.158Z,1012.43
2023-12-19T11:11:40.144Z,1012.36
2023-12-19T11:12:40.161Z,1012.40
2023-12-19T11:13:40.116Z,1012.38
2023-12-19T11:14:40.157Z,1012.37
2023-12-19T11:15:40.871Z,1012.32
2023-12-19T11:16:40.132Z,1012.33
2023-12-19T11:17:40.235Z,1012.28
2023-12-19T11:18:40.266Z,1012.26
2023-12-19T11:19:40.520Z,1012.19
2023-12-19T11:20:40.338Z,1012.25
2023-12-19T11:21:40.123Z,1012.20
2023-12-19T11:22:40.070Z,1012.20
2023-12-19T11:23:40.020Z,1012.15
2023-12-19T11:24:40.098Z,1012.08
2023-12-19T11:25:40.042Z,1012.06
2023-12-19T11:26:39.973Z,1012.03
2023-12-19T11:27:40.011Z,1012.09
2023-12-19T11:28:40.119Z,1012.06
2023-12-19T11:29:40.055Z,1012.06
2023-12-19T11:30:39.969Z,1012.06
2023-12-19T11:31:40.008Z,1012.03
2023-12-19T11:32:40.035Z,1012.02
2023-12-19T11:33:40.212Z,1011.98
2023-12-19T11:34:39.957Z,1012.02
2023-12-19T11:35:39.869Z,1011.97
2023-12-19T11:36:39.914Z,1011.94
2023-12-19T11:37:39.861Z,1011.92
2023-12-19T11:38:39.861Z,1011.85
2023-12-19T11:39:39.940Z,1011.81
2023-12-19T11:40:39.884Z,1011.80
2023-12-19T11:41:39.885Z,1011.91
2023-12-19T11:42:40.022Z,1011.81
2023-12-19T11:43:39.878Z,1011.93
2023-12-19T11:44:39.885Z,1011.94
2023-12-19T11:45:39.869Z,1011.88
2023-12-19T11:46:39.829Z,1011.82
2023-12-19T11:47:39.907Z,1011.90
2023-12-19T11:48:40.141Z,1011.92
2023-12-19T11:49:39.901Z,1011.89
2023-12-19T11:50:39.733Z,1011.86
2023-12-19T11:51:39.795Z,1011.78
2023-12-19T11:52:39.749Z,1011.78
2023-12-19T11:53:39.685Z,1011.73
2023-12-19T11:54:39.714Z,1011.71
2023-12-19T11:55:39.699Z,1011.67
2023-12-19T11:56:39.666Z,1011.72
2023-12-19T11:57:41.749Z,1011.72
2023-12-19T11:58:39.724Z,1011.70
2023-12-19T11:59:47.175Z,1011.66
2023-12-19T12:00:43.363Z,1011.68
2023-12-19T12:01:40.756Z,1011.62
2023-12-19T12:02:39.667Z,1011.66
2023-12-19T12:03:39.654Z,1011.67
2023-12-19T12:04:39.674Z,1011.66
2023-12-19T12:05:39.612Z,1011.62
2023-12-19T12:06:39.621Z,1011.57
2023-12-19T12:07:39.555Z,1011.47
2023-12-19T12:08:39.593Z,1011.45
2023-12-19T12:09:39.555Z,1011.43
2023-12-19T12:10:39.505Z,1011.43
2023-12-19T12:11:39.501Z,1011.42
2023-12-19T12:12:39.537Z,1011.42
2023-12-19T12:13:39.716Z,1011.39
2023-12-19T12:14:39.491Z,1011.28
2023-12-19T12:15:39.549Z,1011.22